Time;durP1;ratioP1;P1;durP2;ratioP2;P2;SDS_P1;SDS_P2;PMS_P1;PMS_P2;Temp;Humidity;BMP_temperature;BMP_pressure;BME280_temperature;BME280_humidity;BME280_pressure;Samples;Min_cycle;Max_cycle;Signal;HPM_P1;HPM_P2
2021/06/10 06:55:23;;;;;;;9.70;3.20;;;23.00;86.00;;;;;;12119757;27;20383;-76
2021/06/10 07:01:09;;;;;;;7.82;2.67;;;23.20;83.10;;;;;;12058654;27;20052;-75
2021/06/10 07:06:56;;;;;;;5.47;2.22;;;24.00;77.50;;;;;;12039560;27;20062;-76
2021/06/10 07:12:44;;;;;;;5.45;2.20;;;24.40;74.30;;;;;;12046155;27;20089;-77
2021/06/10 07:18:30;;;;;;;5.68;1.60;;;24.70;70.00;;;;;;12054640;27;20055;-76
2021/06/10 07:24:23;;;;;;;4.50;2.05;;;24.90;68.00;;;;;;12050639;27;21631;-78
2021/06/10 07:30:12;;;;;;;11.35;2.03;;;25.10;67.10;;;;;;12051904;27;20102;-76
2021/06/10 07:35:58;;;;;;;9.20;2.22;;;25.30;66.30;;;;;;12045833;27;20087;-77
2021/06/10 07:41:45;;;;;;;7.45;1.92;;;25.10;62.20;;;;;;12052607;27;20052;-76
2021/06/10 07:47:32;;;;;;;5.60;1.98;;;25.10;62.40;;;;;;12050958;27;20532;-77
2021/06/10 07:53:19;;;;;;;5.40;2.05;;;25.20;61.50;;;;;;12050377;27;20101;-76
2021/06/10 07:59:05;;;;;;;5.90;1.80;;;25.30;59.90;;;;;;12048631;27;20052;-77
2021/06/10 08:04:53;;;;;;;7.30;1.95;;;25.70;60.50;;;;;;12030210;27;20057;-78
2021/06/10 08:10:40;;;;;;;11.90;4.78;;;25.90;57.60;;;;;;12020941;27;20041;-79
2021/06/10 08:16:27;;;;;;;6.88;2.20;;;25.90;59.00;;;;;;12021390;27;20718;-79
2021/06/10 08:22:15;;;;;;;7.63;2.28;;;25.90;58.90;;;;;;12021759;28;20134;-77
2021/06/10 08:28:04;;;;;;;5.72;2.10;;;25.90;58.20;;;;;;12022115;28;20453;-77
2021/06/10 08:33:51;;;;;;;9.25;2.15;;;26.00;59.50;;;;;;12016271;27;20071;-78
2021/06/10 08:39:39;;;;;;;12.40;2.08;;;26.00;58.50;;;;;;12018843;27;20056;-77
2021/06/10 08:45:28;;;;;;;5.13;1.95;;;25.80;58.30;;;;;;12023706;27;20411;-78
2021/06/10 08:51:15;;;;;;;9.65;2.17;;;25.70;59.00;;;;;;12016568;27;20052;-78
2021/06/10 08:57:08;;;;;;;9.88;2.63;;;25.70;59.40;;;;;;12013611;27;20053;-77
2021/06/10 09:02:58;;;;;;;7.28;2.70;;;25.70;59.30;;;;;;11996838;27;20523;-78
2021/06/10 09:08:49;;;;;;;7.55;2.10;;;25.60;59.30;;;;;;12006695;27;20102;-77
2021/06/10 09:15:00;;;;;;;16.60;2.75;;;25.80;60.60;;;;;;11999400;27;20048;-77
2021/06/10 09:20:47;;;;;;;8.18;2.25;;;25.80;59.00;;;;;;12012054;28;20139;-77
2021/06/10 09:26:35;;;;;;;10.88;2.00;;;26.00;58.30;;;;;;12000842;27;20067;-75
2021/06/10 09:32:25;;;;;;;6.65;2.28;;;26.30;59.60;;;;;;12014151;27;20044;-76
2021/06/10 09:38:16;;;;;;;13.43;2.83;;;26.60;58.40;;;;;;12016739;27;20385;-76
2021/06/10 09:44:02;;;;;;;7.47;2.30;;;26.90;58.00;;;;;;12010631;28;20113;-77
2021/06/10 09:49:50;;;;;;;9.95;2.38;;;26.80;58.70;;;;;;12022483;27;20049;-76
2021/06/10 09:55:42;;;;;;;5.15;2.40;;;26.50;59.50;;;;;;12023600;27;20048;-76
2021/06/10 10:01:28;;;;;;;8.55;2.17;;;26.20;59.70;;;;;;12012164;27;20438;-75
2021/06/10 10:07:16;;;;;;;9.68;2.60;;;26.30;59.50;;;;;;12025972;28;20051;-76
2021/06/10 10:13:06;;;;;;;6.97;2.85;;;26.20;60.50;;;;;;12025495;28;20453;-76
2021/06/10 10:18:53;;;;;;;10.82;2.60;;;26.40;61.10;;;;;;12032142;27;20691;-79
2021/06/10 10:24:42;;;;;;;13.15;2.38;;;26.40;61.50;;;;;;12027200;27;20511;-75
2021/06/10 10:30:29;;;;;;;5.60;2.33;;;26.70;60.40;;;;;;12030516;27;20430;-77
2021/06/10 10:36:26;;;;;;;7.00;2.72;;;27.10;60.80;;;;;;12031460;27;20048;-78
2021/06/10 10:42:26;;;;;;;6.53;2.53;;;27.30;59.50;;;;;;12038312;27;20109;-78
2021/06/10 10:48:16;;;;;;;7.60;2.65;;;27.60;59.50;;;;;;12035767;28;20082;-76
2021/06/10 10:54:07;;;;;;;7.35;2.83;;;27.80;59.40;;;;;;12039296;28;20048;-77
2021/06/10 10:59:54;;;;;;;7.38;2.80;;;27.90;59.80;;;;;;12038984;27;20148;-77
2021/06/10 11:05:42;;;;;;;8.15;2.83;;;27.80;60.10;;;;;;12030524;27;20044;-77
2021/06/10 11:11:52;;;;;;;5.00;3.13;;;27.50;63.00;;;;;;12026227;27;20105;-76
2021/06/10 11:17:45;;;;;;;7.32;3.10;;;27.30;63.60;;;;;;12036160;28;20047;-77
2021/06/10 11:23:31;;;;;;;4.60;3.00;;;27.50;63.00;;;;;;12034589;27;20063;-77
2021/06/10 11:29:18;;;;;;;4.57;3.20;;;27.50;63.70;;;;;;12033188;27;20065;-77
2021/06/10 11:35:07;;;;;;;5.68;3.38;;;27.30;63.90;;;;;;12034496;27;20048;-77
2021/06/10 11:41:01;;;;;;;6.65;3.47;;;27.50;64.50;;;;;;12042802;27;20516;-78
2021/06/10 11:46:47;;;;;;;5.63;3.15;;;27.50;65.30;;;;;;12035645;27;20056;-76
2021/06/10 11:52:50;;;;;;;4.78;3.28;;;27.50;64.70;;;;;;12054023;27;20067;-77
2021/06/10 11:58:36;;;;;;;;;;;27.60;64.00;;;;;;12049157;28;20049;-77
2021/06/10 12:04:27;;;;;;;5.80;3.30;;;27.80;64.50;;;;;;12038895;27;19928;-77
2021/06/10 12:10:20;;;;;;;6.38;3.30;;;27.70;65.10;;;;;;12038480;28;20151;-78
2021/06/10 12:16:09;;;;;;;7.57;4.00;;;27.60;65.50;;;;;;12020173;28;20040;-76
2021/06/10 12:21:59;;;;;;;6.07;3.50;;;27.90;64.10;;;;;;12033785;27;20044;-78
2021/06/10 12:27:47;;;;;;;4.85;3.70;;;27.70;63.80;;;;;;12034216;27;20209;-77
2021/06/10 12:33:35;;;;;;;8.77;3.40;;;27.80;63.70;;;;;;12037815;27;20075;-75
2021/06/10 12:39:24;;;;;;;11.20;3.13;;;27.90;65.00;;;;;;12032595;27;20059;-78
2021/06/10 12:45:27;;;;;;;6.68;3.47;;;28.20;64.30;;;;;;12032278;27;20447;-78
2021/06/10 12:51:31;;;;;;;;;;;27.90;63.00;;;;;;12035588;27;20048;-77
2021/06/10 12:57:21;;;;;;;7.68;3.13;;;28.20;63.90;;;;;;12037664;28;20391;-76
2021/06/10 13:03:10;;;;;;;7.05;2.83;;;28.50;62.90;;;;;;12034771;27;20048;-76
2021/06/10 13:08:57;;;;;;;7.55;2.58;;;28.60;61.50;;;;;;12032600;27;20048;-77
2021/06/10 13:14:46;;;;;;;4.80;2.90;;;28.60;62.90;;;;;;12034596;27;20109;-78
2021/06/10 13:20:54;;;;;;;4.53;2.60;;;28.90;60.70;;;;;;12039004;27;20070;-77
2021/06/10 13:26:44;;;;;;;4.32;3.00;;;28.90;60.00;;;;;;12035157;27;20048;-77
2021/06/10 13:32:32;;;;;;;8.05;3.35;;;29.30;60.90;;;;;;12036626;27;20083;-78
2021/06/10 13:38:20;;;;;;;3.25;2.90;;;29.80;59.10;;;;;;12035384;27;20117;-78
2021/06/10 13:44:08;;;;;;;5.30;3.10;;;30.00;58.90;;;;;;12034377;28;20112;-77
2021/06/10 13:49:58;;;;;;;6.22;3.20;;;30.20;59.00;;;;;;12036959;28;20052;-78
2021/06/10 13:55:45;;;;;;;3.53;3.10;;;30.00;58.80;;;;;;12034928;27;20074;-81
2021/06/10 14:01:32;;;;;;;7.07;3.05;;;29.90;58.00;;;;;;12042089;27;20435;-82
2021/06/10 14:07:18;;;;;;;4.38;2.88;;;30.10;59.00;;;;;;12040792;27;20086;-77
2021/06/10 14:13:07;;;;;;;3.53;2.70;;;30.60;57.50;;;;;;12037488;27;20059;-76
2021/06/10 14:18:53;;;;;;;10.48;2.95;;;30.70;57.60;;;;;;12029676;27;20057;-77
2021/06/10 14:24:42;;;;;;;6.22;3.00;;;30.90;57.10;;;;;;12022052;27;20052;-77
2021/06/10 14:30:47;;;;;;;5.40;2.55;;;31.10;56.60;;;;;;12029221;28;20419;-77
2021/06/10 14:36:35;;;;;;;7.82;3.03;;;31.10;55.90;;;;;;12027503;27;20083;-77
2021/06/10 14:42:24;;;;;;;3.45;2.60;;;31.10;56.40;;;;;;12042868;27;20059;-76
2021/06/10 14:48:12;;;;;;;5.93;3.03;;;30.90;55.30;;;;;;12042370;28;20123;-73
2021/06/10 14:53:59;;;;;;;4.05;2.78;;;30.70;56.10;;;;;;12035813;27;20510;-76
2021/06/10 14:59:45;;;;;;;4.35;2.58;;;30.40;57.30;;;;;;12039344;27;20202;-75
2021/06/10 15:05:35;;;;;;;4.30;2.20;;;30.60;56.40;;;;;;12043160;27;20102;-74
2021/06/10 15:11:22;;;;;;;4.03;2.45;;;30.60;55.70;;;;;;12030733;28;20055;-74
2021/06/10 15:17:09;;;;;;;5.95;2.50;;;30.60;55.00;;;;;;12047327;27;20497;-75
2021/06/10 15:22:57;;;;;;;2.53;2.30;;;30.50;55.50;;;;;;12043579;28;20087;-75
2021/06/10 15:28:45;;;;;;;3.05;2.20;;;31.00;54.80;;;;;;12039471;28;20500;-76
2021/06/10 15:34:32;;;;;;;4.32;2.10;;;31.70;52.00;;;;;;12040149;27;20062;-76
2021/06/10 15:40:23;;;;;;;2.42;2.22;;;33.00;50.00;;;;;;12044459;28;20330;-74
2021/06/10 15:46:09;;;;;;;4.85;2.30;;;34.60;49.20;;;;;;12045392;28;20052;-76
2021/06/10 15:51:56;;;;;;;9.68;2.40;;;35.90;45.70;;;;;;12087847;27;20049;-75
2021/06/10 15:57:43;;;;;;;4.43;3.05;;;37.30;46.10;;;;;;12086856;27;20059;-73
2021/06/10 16:03:30;;;;;;;3.90;2.20;;;38.30;45.30;;;;;;12081279;28;20057;-73
2021/06/10 16:09:18;;;;;;;5.15;2.00;;;38.40;44.60;;;;;;12090053;27;20096;-76
2021/06/10 16:15:08;;;;;;;2.88;2.00;;;39.10;42.70;;;;;;12090085;28;21494;-79
2021/06/10 16:20:54;;;;;;;5.18;2.28;;;38.80;42.70;;;;;;12089826;28;20191;-76
2021/06/10 16:26:40;;;;;;;4.00;2.00;;;39.00;42.40;;;;;;12102040;28;20041;-76
2021/06/10 16:32:30;;;;;;;4.88;1.90;;;39.70;41.50;;;;;;12081943;28;20044;-76
2021/06/10 16:38:17;;;;;;;4.55;3.15;;;39.50;41.60;;;;;;12079701;27;20070;-77
2021/06/10 16:44:06;;;;;;;2.85;1.92;;;39.70;40.60;;;;;;12090915;27;20780;-75
2021/06/10 16:49:54;;;;;;;2.22;1.80;;;39.60;41.10;;;;;;12074224;27;20043;-77
2021/06/10 16:55:40;;;;;;;3.17;1.95;;;39.70;41.10;;;;;;12077057;28;20044;-76
2021/06/10 17:01:32;;;;;;;2.33;2.00;;;40.40;40.90;;;;;;12104376;27;21071;-76
2021/06/10 17:07:21;;;;;;;1.90;1.80;;;41.50;39.20;;;;;;12092591;28;20044;-77
2021/06/10 17:13:07;;;;;;;2.10;1.90;;;42.00;37.80;;;;;;12068411;28;20100;-77
2021/06/10 17:18:53;;;;;;;4.05;1.80;;;41.90;38.40;;;;;;12036153;27;21535;-77
2021/06/10 17:24:41;;;;;;;2.83;2.10;;;42.30;37.40;;;;;;12035077;28;20056;-77
2021/06/10 17:30:28;;;;;;;3.17;1.58;;;42.30;37.40;;;;;;12040626;27;20052;-81
2021/06/10 17:36:15;;;;;;;2.17;1.98;;;42.40;36.90;;;;;;12059776;28;20041;-79
2021/06/10 17:42:04;;;;;;;6.63;2.25;;;42.10;36.80;;;;;;12020409;27;20056;-77
2021/06/10 17:47:50;;;;;;;3.55;2.00;;;41.40;37.80;;;;;;12012115;27;21441;-76
2021/06/10 17:53:37;;;;;;;4.90;2.08;;;41.80;36.60;;;;;;12028804;27;20109;-76
2021/06/10 17:59:25;;;;;;;3.08;1.77;;;41.70;37.20;;;;;;12026976;27;20052;-81
2021/06/10 18:05:13;;;;;;;4.57;1.70;;;41.60;37.20;;;;;;12039485;27;20068;-84
2021/06/10 18:11:00;;;;;;;3.58;1.90;;;41.50;36.90;;;;;;12051363;27;20052;-81
2021/06/10 18:16:53;;;;;;;2.15;1.95;;;41.00;37.60;;;;;;12068299;28;20058;-80
2021/06/10 18:22:39;;;;;;;4.28;1.85;;;40.50;38.60;;;;;;12074872;27;20045;-81
2021/06/10 18:28:26;;;;;;;3.17;1.90;;;41.10;38.10;;;;;;12075096;28;20048;-82
2021/06/10 18:34:14;;;;;;;6.47;1.83;;;41.10;38.00;;;;;;12055402;27;20102;-82
2021/06/10 18:40:01;;;;;;;1.67;1.55;;;40.40;38.80;;;;;;12073518;27;20060;-79
2021/06/10 18:45:47;;;;;;;2.17;1.55;;;39.50;39.90;;;;;;12055383;27;20064;-81
2021/06/10 18:51:35;;;;;;;2.92;2.00;;;39.10;40.60;;;;;;12058607;27;20051;-81
2021/06/10 18:57:22;;;;;;;4.18;1.65;;;38.70;41.20;;;;;;12058334;28;20071;-81
2021/06/10 19:03:09;;;;;;;1.90;1.60;;;38.40;42.00;;;;;;12046482;27;20075;-81
2021/06/10 19:08:56;;;;;;;2.00;1.70;;;37.80;42.30;;;;;;12060854;28;21510;-81
2021/06/10 19:14:43;;;;;;;1.80;1.70;;;37.30;43.50;;;;;;12078574;27;20071;-81
2021/06/10 19:20:29;;;;;;;3.00;1.77;;;35.90;45.80;;;;;;12083426;28;20060;-82
2021/06/10 19:26:17;;;;;;;2.65;2.33;;;34.00;48.90;;;;;;12076758;28;20098;-80
2021/06/10 19:32:04;;;;;;;2.20;1.80;;;32.50;52.00;;;;;;12077860;28;20293;-80
2021/06/10 19:37:52;;;;;;;2.00;1.65;;;31.50;54.00;;;;;;12073008;27;20079;-81
2021/06/10 19:43:40;;;;;;;2.60;1.77;;;30.90;55.60;;;;;;12055450;28;20044;-81
2021/06/10 19:49:26;;;;;;;4.88;2.40;;;30.60;56.60;;;;;;12056715;28;20048;-81
2021/06/10 19:55:13;;;;;;;4.65;2.92;;;30.40;57.50;;;;;;12051346;28;20052;-80
2021/06/10 20:01:02;;;;;;;4.55;2.22;;;30.10;58.50;;;;;;12067869;27;20048;-79
2021/06/10 20:06:50;;;;;;;4.43;2.53;;;29.80;59.50;;;;;;12068813;27;20499;-82
2021/06/10 20:12:37;;;;;;;6.03;2.10;;;29.50;60.30;;;;;;12074046;27;20048;-80
2021/06/10 20:18:25;;;;;;;15.82;2.83;;;29.20;61.50;;;;;;12086078;27;20055;-80
2021/06/10 20:24:12;;;;;;;9.07;2.55;;;29.10;62.60;;;;;;12079923;27;20055;-81
2021/06/10 20:36:05;;;;;;;8.82;2.65;;;28.80;63.80;;;;;;12062978;28;20082;-79
2021/06/10 20:41:52;;;;;;;8.52;2.40;;;28.60;64.30;;;;;;12047132;28;21827;-79
2021/06/10 20:47:38;;;;;;;7.28;2.80;;;28.50;64.70;;;;;;12041237;27;20052;-79
2021/06/10 20:53:26;;;;;;;6.63;2.88;;;28.40;65.60;;;;;;12053222;27;20102;-79
2021/06/10 20:59:12;;;;;;;7.72;2.60;;;28.40;66.00;;;;;;12077903;27;20044;-79
2021/06/10 21:04:59;;;;;;;7.45;3.20;;;28.30;66.40;;;;;;12084008;28;20051;-79
2021/06/10 21:10:47;;;;;;;5.30;2.40;;;28.30;66.70;;;;;;12096041;28;20140;-78
2021/06/10 21:16:42;;;;;;;11.10;2.97;;;28.10;66.70;;;;;;12064174;27;20051;-79
2021/06/10 21:22:29;;;;;;;4.32;2.17;;;28.00;67.50;;;;;;12062660;27;20036;-78
2021/06/10 21:28:16;;;;;;;3.63;2.55;;;27.90;67.30;;;;;;12080785;27;20067;-80
2021/06/10 21:34:03;;;;;;;6.00;2.45;;;27.70;67.80;;;;;;12075816;27;20052;-80
2021/06/10 21:39:49;;;;;;;5.85;2.38;;;27.70;68.30;;;;;;12077403;27;20053;-79
2021/06/10 21:45:37;;;;;;;7.75;2.65;;;27.60;68.60;;;;;;12073602;27;20476;-79
2021/06/10 21:51:26;;;;;;;5.03;2.85;;;27.50;69.00;;;;;;12068660;28;20104;-79
2021/06/10 21:57:14;;;;;;;3.25;2.70;;;27.50;69.20;;;;;;12076461;27;20045;-79
2021/06/10 22:03:02;;;;;;;3.55;3.03;;;27.30;69.30;;;;;;12058384;27;20046;-80
2021/06/10 22:08:48;;;;;;;3.97;3.13;;;27.20;70.40;;;;;;12079516;28;20108;-80
2021/06/10 22:14:34;;;;;;;4.20;3.10;;;27.00;70.80;;;;;;12087410;28;20079;-79
2021/06/10 22:20:23;;;;;;;3.70;3.08;;;26.90;71.40;;;;;;12080555;28;20048;-79
2021/06/10 22:26:09;;;;;;;4.07;3.30;;;26.90;71.80;;;;;;12087764;28;20112;-80
2021/06/10 22:31:56;;;;;;;5.40;2.92;;;26.80;71.80;;;;;;12075688;27;20064;-74
2021/06/10 22:37:44;;;;;;;8.05;3.35;;;26.80;71.70;;;;;;12025264;28;20063;-73
2021/06/10 22:43:33;;;;;;;5.35;3.22;;;26.90;71.90;;;;;;12033597;27;20056;-74
2021/06/10 22:49:21;;;;;;;5.97;3.40;;;26.80;72.20;;;;;;12034705;28;20058;-73
2021/06/10 22:55:10;;;;;;;5.70;3.50;;;26.70;72.20;;;;;;12035860;28;20056;-74
2021/06/10 23:00:56;;;;;;;6.60;3.42;;;26.70;72.30;;;;;;12034602;28;20167;-74
2021/06/10 23:06:43;;;;;;;4.95;3.75;;;26.60;72.50;;;;;;12039939;27;20064;-74
2021/06/10 23:12:30;;;;;;;5.30;3.85;;;26.50;73.00;;;;;;12047333;27;20059;-75
2021/06/10 23:18:17;;;;;;;4.28;3.90;;;26.40;73.40;;;;;;12036906;27;20507;-75
2021/06/10 23:24:04;;;;;;;6.47;4.57;;;26.40;73.60;;;;;;12044641;27;20055;-74
2021/06/10 23:29:52;;;;;;;5.53;4.05;;;26.40;73.60;;;;;;12028696;28;20044;-74
2021/06/10 23:35:38;;;;;;;9.38;5.07;;;26.30;73.70;;;;;;12053188;27;20470;-75
2021/06/10 23:41:27;;;;;;;7.25;4.28;;;26.30;73.90;;;;;;12058780;28;20533;-74
2021/06/10 23:47:15;;;;;;;4.15;3.65;;;26.30;74.00;;;;;;12057198;27;20067;-75
2021/06/10 23:53:02;;;;;;;5.55;3.42;;;26.20;74.60;;;;;;12067809;28;20580;-75
2021/06/10 23:58:48;;;;;;;5.57;3.55;;;26.30;74.60;;;;;;12071658;28;20106;-82
